sensor_id;sensor_type;location;lat;lon;timestamp;P1;durP1;ratioP1;P2;durP2;ratioP2
72115;SDS011;59991;52.140;5.428;2022-10-20T00:00:01;8.85;;;5.40;;
72115;SDS011;59991;52.140;5.428;2022-10-20T00:00:34;10.50;;;5.07;;
72115;SDS011;59991;52.140;5.428;2022-10-20T00:01:06;7.75;;;5.53;;
72115;SDS011;59991;52.140;5.428;2022-10-20T00:01:38;8.27;;;6.03;;
72115;SDS011;59991;52.140;5.428;2022-10-20T00:02:12;6.80;;;6.10;;
72115;SDS011;59991;52.140;5.428;2022-10-20T00:02:44;6.93;;;6.20;;
72115;SDS011;59991;52.140;5.428;2022-10-20T00:03:16;6.40;;;5.80;;
72115;SDS011;59991;52.140;5.428;2022-10-20T00:03:48;8.02;;;6.30;;
72115;SDS011;59991;52.140;5.428;2022-10-20T00:04:23;8.93;;;5.35;;
72115;SDS011;59991;52.140;5.428;2022-10-20T00:04:54;6.23;;;5.60;;
72115;SDS011;59991;52.140;5.428;2022-10-20T00:05:26;6.10;;;5.15;;
72115;SDS011;59991;52.140;5.428;2022-10-20T00:06:08;7.05;;;6.40;;
72115;SDS011;59991;52.140;5.428;2022-10-20T00:06:44;5.93;;;5.22;;
72115;SDS011;59991;52.140;5.428;2022-10-20T00:07:15;8.82;;;5.97;;
72115;SDS011;59991;52.140;5.428;2022-10-20T00:07:47;8.40;;;6.47;;
72115;SDS011;59991;52.140;5.428;2022-10-20T00:08:23;9.18;;;5.88;;
72115;SDS011;59991;52.140;5.428;2022-10-20T00:09:00;11.70;;;6.32;;
72115;SDS011;59991;52.140;5.428;2022-10-20T00:09:36;8.23;;;6.15;;
72115;SDS011;59991;52.140;5.428;2022-10-20T00:10:10;7.13;;;5.25;;
72115;SDS011;59991;52.140;5.428;2022-10-20T00:10:53;6.90;;;5.80;;
72115;SDS011;59991;52.140;5.428;2022-10-20T00:11:25;8.80;;;6.70;;
72115;SDS011;59991;52.140;5.428;2022-10-20T00:12:00;8.13;;;5.80;;
72115;SDS011;59991;52.140;5.428;2022-10-20T00:12:32;8.25;;;6.47;;
72115;SDS011;59991;52.140;5.428;2022-10-20T00:13:04;8.80;;;5.63;;
72115;SDS011;59991;52.140;5.428;2022-10-20T00:13:38;7.80;;;7.07;;
72115;SDS011;59991;52.140;5.428;2022-10-20T00:14:10;8.63;;;5.28;;
72115;SDS011;59991;52.140;5.428;2022-10-20T00:14:44;6.40;;;5.82;;
72115;SDS011;59991;52.140;5.428;2022-10-20T00:15:19;9.45;;;6.13;;
72115;SDS011;59991;52.140;5.428;2022-10-20T00:15:51;5.80;;;5.30;;
72115;SDS011;59991;52.140;5.428;2022-10-20T00:16:24;6.50;;;5.90;;
72115;SDS011;59991;52.140;5.428;2022-10-20T00:16:58;9.27;;;6.05;;
72115;SDS011;59991;52.140;5.428;2022-10-20T00:17:31;7.07;;;6.38;;
72115;SDS011;59991;52.140;5.428;2022-10-20T00:18:03;6.00;;;5.38;;
72115;SDS011;59991;52.140;5.428;2022-10-20T00:18:37;6.35;;;5.78;;
72115;SDS011;59991;52.140;5.428;2022-10-20T00:19:09;7.90;;;5.78;;
72115;SDS011;59991;52.140;5.428;2022-10-20T00:19:46;6.25;;;5.65;;
72115;SDS011;59991;52.140;5.428;2022-10-20T00:20:19;8.63;;;6.32;;
72115;SDS011;59991;52.140;5.428;2022-10-20T00:20:51;7.25;;;6.18;;
72115;SDS011;59991;52.140;5.428;2022-10-20T00:21:24;9.35;;;5.35;;
72115;SDS011;59991;52.140;5.428;2022-10-20T00:21:57;12.17;;;6.33;;
72115;SDS011;59991;52.140;5.428;2022-10-20T00:22:30;5.78;;;5.18;;
72115;SDS011;59991;52.140;5.428;2022-10-20T00:23:04;5.40;;;4.90;;
72115;SDS011;59991;52.140;5.428;2022-10-20T00:23:36;8.00;;;6.28;;
72115;SDS011;59991;52.140;5.428;2022-10-20T00:24:07;7.60;;;6.03;;
72115;SDS011;59991;52.140;5.428;2022-10-20T00:24:39;8.63;;;6.22;;
72115;SDS011;59991;52.140;5.428;2022-10-20T00:25:13;9.77;;;5.90;;
72115;SDS011;59991;52.140;5.428;2022-10-20T00:25:44;6.57;;;5.85;;
72115;SDS011;59991;52.140;5.428;2022-10-20T00:26:20;6.57;;;5.82;;
72115;SDS011;59991;52.140;5.428;2022-10-20T00:26:54;8.70;;;5.97;;
72115;SDS011;59991;52.140;5.428;2022-10-20T00:27:25;6.80;;;4.93;;
72115;SDS011;59991;52.140;5.428;2022-10-20T00:27:57;9.23;;;5.80;;
72115;SDS011;59991;52.140;5.428;2022-10-20T00:28:32;5.82;;;5.32;;
72115;SDS011;59991;52.140;5.428;2022-10-20T00:29:04;11.30;;;6.10;;
72115;SDS011;59991;52.140;5.428;2022-10-20T00:29:38;9.55;;;6.90;;
72115;SDS011;59991;52.140;5.428;2022-10-20T00:30:09;8.52;;;6.55;;
72115;SDS011;59991;52.140;5.428;2022-10-20T00:30:44;6.90;;;6.30;;
72115;SDS011;59991;52.140;5.428;2022-10-20T00:31:18;8.80;;;6.05;;
72115;SDS011;59991;52.140;5.428;2022-10-20T00:31:51;7.65;;;6.82;;
72115;SDS011;59991;52.140;5.428;2022-10-20T00:32:23;5.93;;;5.40;;
72115;SDS011;59991;52.140;5.428;2022-10-20T00:32:55;6.47;;;5.87;;
72115;SDS011;59991;52.140;5.428;2022-10-20T00:33:29;6.55;;;5.32;;
72115;SDS011;59991;52.140;5.428;2022-10-20T00:34:01;7.65;;;6.57;;
72115;SDS011;59991;52.140;5.428;2022-10-20T00:34:38;6.15;;;5.10;;
72115;SDS011;59991;52.140;5.428;2022-10-20T00:35:10;9.63;;;6.30;;
72115;SDS011;59991;52.140;5.428;2022-10-20T00:35:41;6.90;;;5.65;;
72115;SDS011;59991;52.140;5.428;2022-10-20T00:36:14;6.75;;;6.05;;
72115;SDS011;59991;52.140;5.428;2022-10-20T00:36:47;7.50;;;6.80;;
72115;SDS011;59991;52.140;5.428;2022-10-20T00:37:22;6.57;;;5.70;;
72115;SDS011;59991;52.140;5.428;2022-10-20T00:37:56;6.68;;;5.85;;
72115;SDS011;59991;52.140;5.428;2022-10-20T00:38:29;6.67;;;6.07;;
72115;SDS011;59991;52.140;5.428;2022-10-20T00:39:02;8.45;;;7.15;;
72115;SDS011;59991;52.140;5.428;2022-10-20T00:39:35;8.90;;;6.68;;
72115;SDS011;59991;52.140;5.428;2022-10-20T00:40:09;7.10;;;6.30;;
72115;SDS011;59991;52.140;5.428;2022-10-20T00:40:43;7.82;;;7.00;;
72115;SDS011;59991;52.140;5.428;2022-10-20T00:41:17;9.40;;;6.90;;
72115;SDS011;59991;52.140;5.428;2022-10-20T00:41:50;7.85;;;5.75;;
72115;SDS011;59991;52.140;5.428;2022-10-20T00:42:23;5.35;;;4.95;;
72115;SDS011;59991;52.140;5.428;2022-10-20T00:42:55;6.65;;;6.15;;
72115;SDS011;59991;52.140;5.428;2022-10-20T00:45:17;6.82;;;5.78;;
72115;SDS011;59991;52.140;5.428;2022-10-20T00:45:51;6.63;;;5.22;;
72115;SDS011;59991;52.140;5.428;2022-10-20T00:46:34;6.75;;;6.07;;
72115;SDS011;59991;52.140;5.428;2022-10-20T00:47:17;10.07;;;6.03;;
72115;SDS011;59991;52.140;5.428;2022-10-20T00:47:56;6.57;;;5.72;;
72115;SDS011;59991;52.140;5.428;2022-10-20T00:48:32;8.57;;;6.20;;
72115;SDS011;59991;52.140;5.428;2022-10-20T00:49:18;7.60;;;6.57;;
72115;SDS011;59991;52.140;5.428;2022-10-20T00:49:55;8.32;;;6.00;;
72115;SDS011;59991;52.140;5.428;2022-10-20T00:50:31;7.55;;;5.72;;
72115;SDS011;59991;52.140;5.428;2022-10-20T00:51:11;5.80;;;5.40;;
72115;SDS011;59991;52.140;5.428;2022-10-20T00:51:44;7.90;;;5.63;;
72115;SDS011;59991;52.140;5.428;2022-10-20T00:52:19;9.48;;;6.07;;
72115;SDS011;59991;52.140;5.428;2022-10-20T00:52:52;8.85;;;6.47;;
72115;SDS011;59991;52.140;5.428;2022-10-20T00:53:33;8.70;;;6.82;;
72115;SDS011;59991;52.140;5.428;2022-10-20T00:54:09;8.15;;;5.60;;
72115;SDS011;59991;52.140;5.428;2022-10-20T00:54:46;11.55;;;6.72;;
72115;SDS011;59991;52.140;5.428;2022-10-20T00:55:22;10.60;;;6.28;;
72115;SDS011;59991;52.140;5.428;2022-10-20T00:55:56;7.80;;;6.63;;
72115;SDS011;59991;52.140;5.428;2022-10-20T00:56:29;7.35;;;5.85;;
72115;SDS011;59991;52.140;5.428;2022-10-20T00:57:03;7.60;;;6.90;;
72115;SDS011;59991;52.140;5.428;2022-10-20T00:57:37;8.25;;;5.90;;
72115;SDS011;59991;52.140;5.428;2022-10-20T00:58:10;9.63;;;6.03;;
72115;SDS011;59991;52.140;5.428;2022-10-20T00:58:44;7.35;;;6.10;;
72115;SDS011;59991;52.140;5.428;2022-10-20T00:59:19;8.52;;;6.57;;
72115;SDS011;59991;52.140;5.428;2022-10-20T00:59:55;7.88;;;6.68;;
72115;SDS011;59991;52.140;5.428;2022-10-20T01:00:29;8.05;;;5.93;;
72115;SDS011;59991;52.140;5.428;2022-10-20T01:01:03;7.22;;;6.28;;
72115;SDS011;59991;52.140;5.428;2022-10-20T01:01:36;11.48;;;6.53;;
72115;SDS011;59991;52.140;5.428;2022-10-20T01:02:09;6.43;;;5.75;;
72115;SDS011;59991;52.140;5.428;2022-10-20T01:02:43;6.87;;;6.10;;
72115;SDS011;59991;52.140;5.428;2022-10-20T01:03:18;6.25;;;5.60;;
72115;SDS011;59991;52.140;5.428;2022-10-20T01:04:02;6.95;;;6.28;;
72115;SDS011;59991;52.140;5.428;2022-10-20T01:04:37;8.40;;;7.22;;
72115;SDS011;59991;52.140;5.428;2022-10-20T01:05:12;7.05;;;5.95;;
72115;SDS011;59991;52.140;5.428;2022-10-20T01:05:43;7.22;;;6.57;;
72115;SDS011;59991;52.140;5.428;2022-10-20T01:06:19;6.88;;;6.20;;
72115;SDS011;59991;52.140;5.428;2022-10-20T01:06:52;7.80;;;6.65;;
72115;SDS011;59991;52.140;5.428;2022-10-20T01:07:28;7.15;;;5.72;;
72115;SDS011;59991;52.140;5.428;2022-10-20T01:07:59;7.20;;;6.50;;
72115;SDS011;59991;52.140;5.428;2022-10-20T01:08:33;8.23;;;5.97;;
72115;SDS011;59991;52.140;5.428;2022-10-20T01:09:11;7.60;;;6.07;;
72115;SDS011;59991;52.140;5.428;2022-10-20T01:09:43;7.63;;;6.22;;
72115;SDS011;59991;52.140;5.428;2022-10-20T01:10:17;8.00;;;6.05;;
72115;SDS011;59991;52.140;5.428;2022-10-20T01:11:00;9.35;;;6.18;;
72115;SDS011;59991;52.140;5.428;2022-10-20T01:11:50;7.60;;;6.40;;
72115;SDS011;59991;52.140;5.428;2022-10-20T01:13:14;6.82;;;5.32;;
72115;SDS011;59991;52.140;5.428;2022-10-20T01:14:58;8.60;;;5.90;;
72115;SDS011;59991;52.140;5.428;2022-10-20T01:15:43;10.00;;;5.43;;
72115;SDS011;59991;52.140;5.428;2022-10-20T01:22:04;7.43;;;5.57;;
72115;SDS011;59991;52.140;5.428;2022-10-20T01:23:42;8.45;;;6.88;;
72115;SDS011;59991;52.140;5.428;2022-10-20T01:26:56;8.80;;;6.10;;
72115;SDS011;59991;52.140;5.428;2022-10-20T01:27:47;6.38;;;5.65;;
72115;SDS011;59991;52.140;5.428;2022-10-20T01:28:30;10.20;;;5.93;;
72115;SDS011;59991;52.140;5.428;2022-10-20T01:29:10;6.40;;;5.88;;
72115;SDS011;59991;52.140;5.428;2022-10-20T01:29:54;7.55;;;6.15;;
72115;SDS011;59991;52.140;5.428;2022-10-20T01:30:32;6.15;;;5.55;;
72115;SDS011;59991;52.140;5.428;2022-10-20T01:31:15;7.25;;;6.55;;
72115;SDS011;59991;52.140;5.428;2022-10-20T01:32:03;8.25;;;5.95;;
72115;SDS011;59991;52.140;5.428;2022-10-20T01:33:55;7.50;;;5.33;;
72115;SDS011;59991;52.140;5.428;2022-10-20T01:35:30;6.38;;;5.82;;
72115;SDS011;59991;52.140;5.428;2022-10-20T01:36:27;8.95;;;6.20;;
72115;SDS011;59991;52.140;5.428;2022-10-20T01:37:06;9.70;;;6.85;;
72115;SDS011;59991;52.140;5.428;2022-10-20T01:39:04;7.60;;;6.13;;
72115;SDS011;59991;52.140;5.428;2022-10-20T01:39:51;10.02;;;6.93;;
72115;SDS011;59991;52.140;5.428;2022-10-20T01:41:07;7.78;;;6.60;;
72115;SDS011;59991;52.140;5.428;2022-10-20T01:41:42;7.60;;;6.95;;
72115;SDS011;59991;52.140;5.428;2022-10-20T01:42:21;8.50;;;6.03;;
72115;SDS011;59991;52.140;5.428;2022-10-20T01:42:58;6.78;;;6.00;;
72115;SDS011;59991;52.140;5.428;2022-10-20T01:43:37;9.25;;;7.10;;
72115;SDS011;59991;52.140;5.428;2022-10-20T01:44:11;8.50;;;7.32;;
72115;SDS011;59991;52.140;5.428;2022-10-20T01:44:47;8.10;;;7.25;;
72115;SDS011;59991;52.140;5.428;2022-10-20T01:45:22;11.32;;;8.13;;
72115;SDS011;59991;52.140;5.428;2022-10-20T01:45:56;8.15;;;6.18;;
72115;SDS011;59991;52.140;5.428;2022-10-20T01:46:30;7.88;;;7.13;;
72115;SDS011;59991;52.140;5.428;2022-10-20T01:47:03;9.10;;;7.07;;
72115;SDS011;59991;52.140;5.428;2022-10-20T01:47:36;11.00;;;7.05;;
72115;SDS011;59991;52.140;5.428;2022-10-20T01:48:12;8.87;;;6.33;;
72115;SDS011;59991;52.140;5.428;2022-10-20T01:48:51;8.27;;;6.70;;
72115;SDS011;59991;52.140;5.428;2022-10-20T01:49:24;7.60;;;6.93;;
72115;SDS011;59991;52.140;5.428;2022-10-20T01:49:56;12.23;;;7.30;;
72115;SDS011;59991;52.140;5.428;2022-10-20T01:50:28;7.82;;;7.13;;
72115;SDS011;59991;52.140;5.428;2022-10-20T01:51:01;9.27;;;7.63;;
72115;SDS011;59991;52.140;5.428;2022-10-20T01:51:34;10.05;;;9.07;;
72115;SDS011;59991;52.140;5.428;2022-10-20T01:52:06;9.60;;;7.45;;
72115;SDS011;59991;52.140;5.428;2022-10-20T01:52:37;7.38;;;6.28;;
72115;SDS011;59991;52.140;5.428;2022-10-20T01:53:09;7.88;;;6.72;;
72115;SDS011;59991;52.140;5.428;2022-10-20T01:53:41;7.77;;;6.73;;
72115;SDS011;59991;52.140;5.428;2022-10-20T01:54:22;8.48;;;7.47;;
72115;SDS011;59991;52.140;5.428;2022-10-20T01:55:01;11.07;;;6.78;;
72115;SDS011;59991;52.140;5.428;2022-10-20T01:55:34;12.38;;;7.13;;
72115;SDS011;59991;52.140;5.428;2022-10-20T01:56:15;8.40;;;7.57;;
72115;SDS011;59991;52.140;5.428;2022-10-20T01:59:51;8.32;;;6.90;;
72115;SDS011;59991;52.140;5.428;2022-10-20T02:00:31;9.02;;;6.93;;
72115;SDS011;59991;52.140;5.428;2022-10-20T02:02:10;7.25;;;6.55;;
72115;SDS011;59991;52.140;5.428;2022-10-20T02:03:12;6.32;;;5.80;;
72115;SDS011;59991;52.140;5.428;2022-10-20T02:03:57;9.35;;;6.78;;
72115;SDS011;59991;52.140;5.428;2022-10-20T02:04:34;8.35;;;6.80;;
72115;SDS011;59991;52.140;5.428;2022-10-20T02:05:39;8.55;;;6.55;;
72115;SDS011;59991;52.140;5.428;2022-10-20T02:07:16;8.23;;;6.70;;
72115;SDS011;59991;52.140;5.428;2022-10-20T02:09:12;11.50;;;7.28;;
72115;SDS011;59991;52.140;5.428;2022-10-20T02:10:16;9.43;;;6.43;;
72115;SDS011;59991;52.140;5.428;2022-10-20T02:10:54;10.23;;;7.78;;
72115;SDS011;59991;52.140;5.428;2022-10-20T02:11:43;7.53;;;6.90;;
72115;SDS011;59991;52.140;5.428;2022-10-20T02:12:30;9.80;;;7.10;;
72115;SDS011;59991;52.140;5.428;2022-10-20T02:13:06;8.90;;;6.88;;
72115;SDS011;59991;52.140;5.428;2022-10-20T02:13:43;10.18;;;6.85;;
72115;SDS011;59991;52.140;5.428;2022-10-20T02:14:17;8.88;;;6.93;;
72115;SDS011;59991;52.140;5.428;2022-10-20T02:14:51;8.27;;;7.50;;
72115;SDS011;59991;52.140;5.428;2022-10-20T02:15:26;8.00;;;7.30;;
72115;SDS011;59991;52.140;5.428;2022-10-20T02:16:06;8.00;;;6.68;;
72115;SDS011;59991;52.140;5.428;2022-10-20T02:16:57;11.93;;;7.97;;
72115;SDS011;59991;52.140;5.428;2022-10-20T02:17:31;8.52;;;6.20;;
72115;SDS011;59991;52.140;5.428;2022-10-20T02:18:06;9.95;;;7.93;;
72115;SDS011;59991;52.140;5.428;2022-10-20T02:18:41;7.50;;;6.60;;
72115;SDS011;59991;52.140;5.428;2022-10-20T02:19:15;9.20;;;8.10;;
72115;SDS011;59991;52.140;5.428;2022-10-20T02:19:52;9.88;;;7.35;;
72115;SDS011;59991;52.140;5.428;2022-10-20T02:20:28;10.10;;;7.97;;
72115;SDS011;59991;52.140;5.428;2022-10-20T02:21:02;8.68;;;7.15;;
72115;SDS011;59991;52.140;5.428;2022-10-20T02:21:35;10.65;;;8.60;;
72115;SDS011;59991;52.140;5.428;2022-10-20T02:22:11;10.35;;;7.28;;
72115;SDS011;59991;52.140;5.428;2022-10-20T02:22:51;9.20;;;6.83;;
72115;SDS011;59991;52.140;5.428;2022-10-20T02:23:29;7.55;;;6.85;;
72115;SDS011;59991;52.140;5.428;2022-10-20T02:24:08;8.68;;;7.47;;
72115;SDS011;59991;52.140;5.428;2022-10-20T02:24:41;8.90;;;7.97;;
72115;SDS011;59991;52.140;5.428;2022-10-20T02:25:14;8.57;;;7.88;;
72115;SDS011;59991;52.140;5.428;2022-10-20T02:25:46;9.35;;;7.00;;
72115;SDS011;59991;52.140;5.428;2022-10-20T02:26:22;10.45;;;7.28;;
72115;SDS011;59991;52.140;5.428;2022-10-20T02:26:57;9.52;;;7.13;;
72115;SDS011;59991;52.140;5.428;2022-10-20T02:27:38;13.10;;;8.93;;
72115;SDS011;59991;52.140;5.428;2022-10-20T02:28:18;9.18;;;7.38;;
72115;SDS011;59991;52.140;5.428;2022-10-20T02:28:52;8.50;;;7.67;;
72115;SDS011;59991;52.140;5.428;2022-10-20T02:29:28;8.27;;;6.93;;
72115;SDS011;59991;52.140;5.428;2022-10-20T02:30:08;11.32;;;7.28;;
72115;SDS011;59991;52.140;5.428;2022-10-20T02:30:42;8.60;;;7.75;;
72115;SDS011;59991;52.140;5.428;2022-10-20T02:31:20;9.02;;;8.23;;
72115;SDS011;59991;52.140;5.428;2022-10-20T02:31:54;8.73;;;7.82;;
72115;SDS011;59991;52.140;5.428;2022-10-20T02:32:26;9.57;;;7.60;;
72115;SDS011;59991;52.140;5.428;2022-10-20T02:33:04;10.35;;;8.10;;
72115;SDS011;59991;52.140;5.428;2022-10-20T02:33:37;8.15;;;7.32;;
72115;SDS011;59991;52.140;5.428;2022-10-20T02:34:10;9.18;;;8.18;;
72115;SDS011;59991;52.140;5.428;2022-10-20T02:34:45;11.37;;;8.87;;
72115;SDS011;59991;52.140;5.428;2022-10-20T02:35:19;9.77;;;8.00;;
72115;SDS011;59991;52.140;5.428;2022-10-20T02:35:55;9.05;;;7.70;;
72115;SDS011;59991;52.140;5.428;2022-10-20T02:36:28;9.75;;;8.65;;
72115;SDS011;59991;52.140;5.428;2022-10-20T02:37:00;8.68;;;7.78;;
72115;SDS011;59991;52.140;5.428;2022-10-20T02:37:32;11.20;;;7.93;;
72115;SDS011;59991;52.140;5.428;2022-10-20T02:38:04;9.45;;;8.52;;
72115;SDS011;59991;52.140;5.428;2022-10-20T02:38:38;9.02;;;8.23;;
72115;SDS011;59991;52.140;5.428;2022-10-20T02:39:11;12.88;;;7.75;;
72115;SDS011;59991;52.140;5.428;2022-10-20T02:39:43;9.68;;;8.20;;
72115;SDS011;59991;52.140;5.428;2022-10-20T02:40:14;9.43;;;7.67;;
72115;SDS011;59991;52.140;5.428;2022-10-20T02:40:48;8.50;;;7.40;;
72115;SDS011;59991;52.140;5.428;2022-10-20T02:41:25;9.88;;;7.63;;
72115;SDS011;59991;52.140;5.428;2022-10-20T02:41:57;9.23;;;8.32;;
72115;SDS011;59991;52.140;5.428;2022-10-20T02:42:31;8.80;;;8.00;;
72115;SDS011;59991;52.140;5.428;2022-10-20T02:43:03;10.32;;;7.93;;
72115;SDS011;59991;52.140;5.428;2022-10-20T02:43:34;12.07;;;7.95;;
72115;SDS011;59991;52.140;5.428;2022-10-20T02:44:06;9.18;;;8.13;;
72115;SDS011;59991;52.140;5.428;2022-10-20T02:44:37;8.88;;;8.18;;
72115;SDS011;59991;52.140;5.428;2022-10-20T02:45:12;11.20;;;7.57;;
72115;SDS011;59991;52.140;5.428;2022-10-20T02:45:44;9.47;;;7.63;;
72115;SDS011;59991;52.140;5.428;2022-10-20T02:46:18;10.43;;;8.27;;
72115;SDS011;59991;52.140;5.428;2022-10-20T02:46:52;10.75;;;7.80;;
72115;SDS011;59991;52.140;5.428;2022-10-20T02:47:24;14.45;;;8.55;;
72115;SDS011;59991;52.140;5.428;2022-10-20T02:47:58;9.00;;;8.10;;
72115;SDS011;59991;52.140;5.428;2022-10-20T02:48:37;9.65;;;6.65;;
72115;SDS011;59991;52.140;5.428;2022-10-20T02:49:09;8.35;;;7.45;;
72115;SDS011;59991;52.140;5.428;2022-10-20T02:49:43;8.85;;;6.80;;
72115;SDS011;59991;52.140;5.428;2022-10-20T02:50:15;8.10;;;7.30;;
72115;SDS011;59991;52.140;5.428;2022-10-20T02:50:48;10.25;;;6.72;;
72115;SDS011;59991;52.140;5.428;2022-10-20T02:51:22;9.60;;;7.20;;
72115;SDS011;59991;52.140;5.428;2022-10-20T02:51:56;10.60;;;7.03;;
72115;SDS011;59991;52.140;5.428;2022-10-20T02:52:28;10.05;;;7.28;;
72115;SDS011;59991;52.140;5.428;2022-10-20T02:53:03;9.77;;;8.00;;
72115;SDS011;59991;52.140;5.428;2022-10-20T02:53:34;14.02;;;8.82;;
72115;SDS011;59991;52.140;5.428;2022-10-20T02:54:08;10.13;;;8.45;;
72115;SDS011;59991;52.140;5.428;2022-10-20T02:54:44;10.00;;;7.43;;
72115;SDS011;59991;52.140;5.428;2022-10-20T02:55:18;8.10;;;7.15;;
72115;SDS011;59991;52.140;5.428;2022-10-20T02:55:51;8.60;;;7.78;;
72115;SDS011;59991;52.140;5.428;2022-10-20T02:56:26;12.77;;;7.13;;
72115;SDS011;59991;52.140;5.428;2022-10-20T02:57:01;8.20;;;6.73;;
72115;SDS011;59991;52.140;5.428;2022-10-20T02:57:34;8.32;;;6.95;;
72115;SDS011;59991;52.140;5.428;2022-10-20T02:58:09;9.70;;;8.07;;
72115;SDS011;59991;52.140;5.428;2022-10-20T02:58:43;10.45;;;7.22;;
72115;SDS011;59991;52.140;5.428;2022-10-20T02:59:17;10.43;;;7.93;;
72115;SDS011;59991;52.140;5.428;2022-10-20T02:59:51;10.95;;;8.43;;
72115;SDS011;59991;52.140;5.428;2022-10-20T03:00:22;9.25;;;7.55;;
72115;SDS011;59991;52.140;5.428;2022-10-20T03:00:57;10.70;;;7.97;;
72115;SDS011;59991;52.140;5.428;2022-10-20T03:01:30;8.75;;;7.30;;
72115;SDS011;59991;52.140;5.428;2022-10-20T03:02:05;8.55;;;7.55;;
72115;SDS011;59991;52.140;5.428;2022-10-20T03:02:36;10.33;;;8.13;;
72115;SDS011;59991;52.140;5.428;2022-10-20T03:03:09;10.90;;;7.68;;
72115;SDS011;59991;52.140;5.428;2022-10-20T03:03:43;11.52;;;7.55;;
72115;SDS011;59991;52.140;5.428;2022-10-20T03:04:14;8.05;;;7.20;;
72115;SDS011;59991;52.140;5.428;2022-10-20T03:04:48;13.23;;;6.85;;
72115;SDS011;59991;52.140;5.428;2022-10-20T03:05:19;7.78;;;7.00;;
72115;SDS011;59991;52.140;5.428;2022-10-20T03:05:51;14.35;;;7.60;;
72115;SDS011;59991;52.140;5.428;2022-10-20T03:06:22;10.73;;;7.75;;
72115;SDS011;59991;52.140;5.428;2022-10-20T03:06:55;7.80;;;7.10;;
72115;SDS011;59991;52.140;5.428;2022-10-20T03:07:32;9.70;;;7.32;;
72115;SDS011;59991;52.140;5.428;2022-10-20T03:08:04;10.90;;;6.80;;
72115;SDS011;59991;52.140;5.428;2022-10-20T03:08:37;12.23;;;7.90;;
72115;SDS011;59991;52.140;5.428;2022-10-20T03:09:08;12.43;;;8.30;;
72115;SDS011;59991;52.140;5.428;2022-10-20T03:09:44;9.00;;;7.10;;
72115;SDS011;59991;52.140;5.428;2022-10-20T03:10:16;11.27;;;7.80;;
72115;SDS011;59991;52.140;5.428;2022-10-20T03:10:47;9.73;;;7.65;;
72115;SDS011;59991;52.140;5.428;2022-10-20T03:11:20;11.68;;;7.63;;
72115;SDS011;59991;52.140;5.428;2022-10-20T03:11:54;9.57;;;7.80;;
72115;SDS011;59991;52.140;5.428;2022-10-20T03:12:25;9.52;;;8.15;;
72115;SDS011;59991;52.140;5.428;2022-10-20T03:13:02;10.60;;;7.30;;
72115;SDS011;59991;52.140;5.428;2022-10-20T03:13:37;9.87;;;7.23;;
72115;SDS011;59991;52.140;5.428;2022-10-20T03:14:09;9.80;;;7.97;;
72115;SDS011;59991;52.140;5.428;2022-10-20T03:14:41;10.00;;;8.07;;
72115;SDS011;59991;52.140;5.428;2022-10-20T03:15:13;12.27;;;7.95;;
72115;SDS011;59991;52.140;5.428;2022-10-20T03:15:46;8.52;;;7.43;;
72115;SDS011;59991;52.140;5.428;2022-10-20T03:16:21;8.85;;;7.53;;
72115;SDS011;59991;52.140;5.428;2022-10-20T03:16:59;19.80;;;9.93;;
72115;SDS011;59991;52.140;5.428;2022-10-20T03:17:35;9.35;;;7.97;;
72115;SDS011;59991;52.140;5.428;2022-10-20T03:18:09;9.43;;;7.57;;
72115;SDS011;59991;52.140;5.428;2022-10-20T03:18:44;11.43;;;6.65;;
72115;SDS011;59991;52.140;5.428;2022-10-20T03:19:18;8.63;;;7.83;;
72115;SDS011;59991;52.140;5.428;2022-10-20T03:19:52;8.98;;;6.95;;
72115;SDS011;59991;52.140;5.428;2022-10-20T03:20:28;8.93;;;7.82;;
72115;SDS011;59991;52.140;5.428;2022-10-20T03:21:00;8.60;;;7.47;;
72115;SDS011;59991;52.140;5.428;2022-10-20T03:21:31;9.27;;;8.35;;
72115;SDS011;59991;52.140;5.428;2022-10-20T03:22:05;8.40;;;7.07;;
72115;SDS011;59991;52.140;5.428;2022-10-20T03:22:40;8.30;;;7.25;;
72115;SDS011;59991;52.140;5.428;2022-10-20T03:23:14;8.15;;;7.13;;
72115;SDS011;59991;52.140;5.428;2022-10-20T03:23:50;8.85;;;7.40;;
72115;SDS011;59991;52.140;5.428;2022-10-20T03:24:23;9.57;;;7.45;;
72115;SDS011;59991;52.140;5.428;2022-10-20T03:24:54;14.23;;;8.30;;
72115;SDS011;59991;52.140;5.428;2022-10-20T03:25:29;10.07;;;9.18;;
72115;SDS011;59991;52.140;5.428;2022-10-20T03:26:02;12.02;;;8.38;;
72115;SDS011;59991;52.140;5.428;2022-10-20T03:26:37;8.75;;;7.68;;
72115;SDS011;59991;52.140;5.428;2022-10-20T03:27:08;11.15;;;9.20;;
72115;SDS011;59991;52.140;5.428;2022-10-20T03:27:48;10.05;;;8.65;;
72115;SDS011;59991;52.140;5.428;2022-10-20T03:28:23;9.05;;;7.78;;
72115;SDS011;59991;52.140;5.428;2022-10-20T03:28:57;8.43;;;7.53;;
72115;SDS011;59991;52.140;5.428;2022-10-20T03:29:32;8.93;;;8.13;;
72115;SDS011;59991;52.140;5.428;2022-10-20T03:30:07;8.50;;;7.40;;
72115;SDS011;59991;52.140;5.428;2022-10-20T03:30:41;12.57;;;8.77;;
72115;SDS011;59991;52.140;5.428;2022-10-20T03:31:15;11.02;;;7.55;;
72115;SDS011;59991;52.140;5.428;2022-10-20T03:31:52;8.48;;;7.60;;
72115;SDS011;59991;52.140;5.428;2022-10-20T03:32:27;8.00;;;7.20;;
72115;SDS011;59991;52.140;5.428;2022-10-20T03:32:58;10.45;;;7.95;;
72115;SDS011;59991;52.140;5.428;2022-10-20T03:33:32;12.05;;;8.00;;
72115;SDS011;59991;52.140;5.428;2022-10-20T03:34:06;8.07;;;7.25;;
72115;SDS011;59991;52.140;5.428;2022-10-20T03:34:40;16.02;;;8.30;;
72115;SDS011;59991;52.140;5.428;2022-10-20T03:35:15;8.57;;;7.63;;
72115;SDS011;59991;52.140;5.428;2022-10-20T03:35:49;10.45;;;7.35;;
72115;SDS011;59991;52.140;5.428;2022-10-20T03:36:24;8.90;;;7.43;;
72115;SDS011;59991;52.140;5.428;2022-10-20T03:37:04;9.60;;;8.43;;
72115;SDS011;59991;52.140;5.428;2022-10-20T03:37:39;8.45;;;7.65;;
72115;SDS011;59991;52.140;5.428;2022-10-20T03:38:14;8.85;;;8.00;;
72115;SDS011;59991;52.140;5.428;2022-10-20T03:38:50;9.15;;;7.60;;
72115;SDS011;59991;52.140;5.428;2022-10-20T03:39:22;9.30;;;8.30;;
72115;SDS011;59991;52.140;5.428;2022-10-20T03:39:59;11.43;;;7.72;;
72115;SDS011;59991;52.140;5.428;2022-10-20T03:40:43;9.52;;;8.10;;
72115;SDS011;59991;52.140;5.428;2022-10-20T03:41:18;8.35;;;7.25;;
72115;SDS011;59991;52.140;5.428;2022-10-20T03:41:57;9.80;;;7.90;;
72115;SDS011;59991;52.140;5.428;2022-10-20T03:42:33;11.23;;;8.43;;
72115;SDS011;59991;52.140;5.428;2022-10-20T03:43:15;9.77;;;8.50;;
72115;SDS011;59991;52.140;5.428;2022-10-20T03:43:46;8.45;;;7.43;;
72115;SDS011;59991;52.140;5.428;2022-10-20T03:44:23;9.85;;;8.38;;
72115;SDS011;59991;52.140;5.428;2022-10-20T03:44:55;13.30;;;8.50;;
72115;SDS011;59991;52.140;5.428;2022-10-20T03:45:27;13.40;;;8.60;;
72115;SDS011;59991;52.140;5.428;2022-10-20T03:46:02;10.23;;;7.20;;
72115;SDS011;59991;52.140;5.428;2022-10-20T03:46:35;9.95;;;8.95;;
72115;SDS011;59991;52.140;5.428;2022-10-20T03:47:09;8.43;;;7.63;;
72115;SDS011;59991;52.140;5.428;2022-10-20T03:47:42;14.20;;;9.02;;
72115;SDS011;59991;52.140;5.428;2022-10-20T03:48:14;11.97;;;9.17;;
72115;SDS011;59991;52.140;5.428;2022-10-20T03:48:48;8.35;;;7.35;;
72115;SDS011;59991;52.140;5.428;2022-10-20T03:49:22;13.35;;;9.38;;
72115;SDS011;59991;52.140;5.428;2022-10-20T03:49:59;8.95;;;7.53;;
72115;SDS011;59991;52.140;5.428;2022-10-20T03:50:32;9.52;;;7.40;;
72115;SDS011;59991;52.140;5.428;2022-10-20T03:51:04;9.18;;;8.15;;
72115;SDS011;59991;52.140;5.428;2022-10-20T03:51:39;10.82;;;7.60;;
72115;SDS011;59991;52.140;5.428;2022-10-20T03:52:16;10.35;;;8.15;;
72115;SDS011;59991;52.140;5.428;2022-10-20T03:52:47;10.35;;;8.18;;
72115;SDS011;59991;52.140;5.428;2022-10-20T03:53:22;8.10;;;7.30;;
72115;SDS011;59991;52.140;5.428;2022-10-20T03:53:57;16.97;;;7.60;;
72115;SDS011;59991;52.140;5.428;2022-10-20T03:54:29;9.45;;;7.63;;
72115;SDS011;59991;52.140;5.428;2022-10-20T03:55:04;10.30;;;7.50;;